METAR Data
IDs: Format: Raw Decoded Include TAF

Data at: 0331 UTC 19 Oct 2021

PAKI 190256Z AUTO 13012KT 5SM BR SCT023 BKN030 OVC041 01/M01 A2949 RMK AO2 SLP988 T00061006 57042 PWINO FZRANO $
PAKI 190205Z AUTO 13010KT 10SM FEW018 BKN042 OVC065 00/M01 A2952 RMK AO2 PWINO FZRANO $
PAKI 190156Z AUTO 13010KT 10SM FEW018 BKN026 OVC070 00/M02 A2953 RMK AO2 SLP002 T00001017 PWINO FZRANO $
PAKI 190120Z AUTO 13008KT 10SM BKN024 BKN120 M01/M02 A2955 RMK AO2 PWINO FZRANO $
PAKI 190056Z AUTO 13009KT 10SM CLR M01/M02 A2957 RMK AO2 SLP015 T10061022 PWINO FZRANO $
PAKI 182356Z AUTO 15008KT 10SM CLR M01/M03 A2961 RMK AO2 SLP030 T10111028 11011 21039 58028 PWINO FZRANO $
PAKI 182256Z AUTO 17004KT 10SM FEW110 M02/M03 A2965 RMK AO2 SLP043 T10171033 PWINO FZRANO $
PAKI 182156Z AUTO 00000KT 10SM CLR M01/M02 A2968 RMK AO2 SLP052 T10111022 PWINO FZRANO $
PAKI 182056Z AUTO 12003KT 10SM CLR M03/M03 A2969 RMK AO2 SLP058 T10281033 58020 PWINO FZRANO $
PAKI 181956Z AUTO 00000KT 10SM CLR M04/M04 A2972 RMK AO2 SLP069 T10391044 PWINO FZRANO $
PAKI 181856Z AUTO 00000KT 10SM CLR M04/M04 A2973 RMK AO2 SLP070 T10391044 PWINO FZRANO $
PAKI 181756Z AUTO 02003KT 10SM CLR M04/M04 A2975 RMK AO2 SLP078 T10391044 11022 21044 56017 PWINO FZRANO $
PAKI 181656Z AUTO 03005KT 10SM CLR M04/M04 A2976 RMK AO2 SLP080 T10391044 PWINO FZRANO $
PAKI 181556Z AUTO 01006KT 10SM CLR M04/M04 A2978 RMK AO2 SLP088 T10391044 PWINO FZRANO $
PAKI 181456Z AUTO 34006KT 10SM CLR M04/M05 A2980 RMK AO2 SLP094 T10391050 52007 PWINO FZRANO $
PAKI 181356Z AUTO 36010KT 10SM CLR M03/M04 A2979 RMK AO2 SLP091 T10281039 PWINO FZRANO $
PAKI 181256Z AUTO 36010KT 10SM CLR M03/M04 A2979 RMK AO2 SLP091 T10281039 PWINO FZRANO $
PAKI 181156Z AUTO 36010KT 10SM CLR M02/M03 A2978 RMK AO2 SLP088 7//// T10221033 10000 21022 53011 PWINO FZRANO $
PAKI 181056Z AUTO 02015G18KT 10SM CLR M02/M03 A2976 RMK AO2 SLP082 T10171028 PWINO FZRANO $
PAKI 180956Z AUTO 02015KT 10SM CLR M01/M03 A2976 RMK AO2 SLP080 T10111028 PWINO FZRANO $
PAKI 180856Z AUTO 01020G24KT 10SM CLR M01/M03 A2975 RMK AO2 PK WND 01027/0806 SLP076 T10111028 400221011 51033 PWINO FZRANO $
PAKI 180756Z AUTO 36017G24KT 10SM CLR M01/M02 A2972 RMK AO2 PK WND 36028/0714 SLP068 T10111022 PWINO FZRANO $
PAKI 180656Z AUTO 36023G27KT 10SM CLR M01/M02 A2968 RMK AO2 PK WND 01028/0646 SLPNO T10061022 PWINO FZRANO $
PAKI 180556Z AUTO 36023G32KT 10SM CLR 00/M02 A2965 RMK AO2 PK WND 36032/0547 SLPNO T00001022 10022 20000 51046 PWINO FZRANO $
PAKI 180456Z AUTO 36020G27KT 10SM BKN065 01/M02 A2961 RMK AO2 PK WND 01032/0431 SLPNO T00061017 PWINO FZRANO $
PAKI 180356Z AUTO 01024G31KT 10SM FEW110 01/M01 A2956 RMK AO2 PK WND 01031/0349 SLPNO T00111011 PWINO FZRANO $
PAKI 180256Z AUTO 01024G30KT 10SM CLR 02/M01 A2952 RMK AO2 PK WND 01032/0217 PRESRR SLPNO T00171011 53057 PWINO FZRANO $
PAKI 180156Z AUTO 01024G28KT 10SM BKN060 02/M01 A2945 RMK AO2 PK WND 01030/0113 SLPNO T00171011 FZRANO
PAKI 180056Z AUTO 01025G29KT 10SM CLR 02/M01 A2941 RMK AO2 PK WND 01030/0044 SLPNO T00171011 FZRANO
PAKI 172356Z AUTO 01021G30KT 10SM CLR 02/M01 A2935 RMK AO2 PK WND 02030/2348 SLPNO 6//// T00171011 53046 FZRANO
PAKI 172256Z AUTO 02021KT 10SM CLR 02/M01 A2930 RMK AO2 PK WND 03028/2159 SLPNO T00171011 FZRANO
PAKI 172156Z AUTO 03021KT 10SM CLR 01/M02 A2925 RMK AO2 PK WND 04029/2102 SLPNO T00111017 FZRANO
PAKI 172056Z AUTO 03021G30KT 10SM FEW110 01/M02 A2921 RMK AO2 PK WND 04032/2041 SLPNO 6//// T00111017 FZRANO
PAKI 171956Z AUTO 03024G29KT 10SM BKN055 OVC070 01/M01 A2917 RMK AO2 PK WND 03032/1929 SLPNO T00061011 FZRANO
PAKI 171656Z AUTO 03022G31KT 9SM -SN OVC055 01/M01 A2904 RMK AO2 PK WND 03031/1647 RAE45SNB45 SLP837 P0000 T00061011 FZRANO
PAKI 171556Z AUTO 03023KT 9SM -RA OVC065 01/M01 A2901 RMK AO2 PK WND 04032/1521 RAB22E39B56SNE22B39E56 SLP825 P0000 T00061006 FZRANO